Time;durP1;ratioP1;P1;durP2;ratioP2;P2;SDS_P1;SDS_P2;PMS_P1;PMS_P2;Temp;Humidity;BMP_temperature;BMP_pressure;BME280_temperature;BME280_humidity;BME280_pressure;Samples;Min_cycle;Max_cycle;Signal;HPM_P1;HPM_P2
2023/07/22 00:01:50;;;;;;;;;;;;;;;20.42;50.35;95689.53;10452149;28;1877;-68
2023/07/22 00:06:50;;;;;;;;;;;;;;;20.60;50.07;95686.22;10451581;28;1949;-68
2023/07/22 00:11:50;;;;;;;;;;;;;;;20.64;50.07;95687.25;10451313;28;1888;-69
2023/07/22 00:16:51;;;;;;;;;;;;;;;20.63;50.30;95688.28;10456557;28;2213;-69
2023/07/22 00:21:52;;;;;;;;;;;;;;;20.59;50.87;95682.00;10445492;28;2205;-67
2023/07/22 00:26:52;;;;;;;;;;;;;;;20.58;50.77;95690.19;10447594;28;2592;-67
2023/07/22 00:31:53;;;;;;;;;;;;;;;20.53;51.40;95685.75;10450864;28;2189;-68
2023/07/22 00:36:53;;;;;;;;;;;;;;;20.44;51.68;95682.13;10444259;28;2012;-67
2023/07/22 00:41:53;;;;;;;;;;;;;;;20.46;51.58;95672.13;10449782;28;4509;-67
2023/07/22 00:46:55;;;;;;;;;;;;;;;20.37;51.74;95665.06;10448912;28;1947;-67
2023/07/22 00:51:56;;;;;;;;;;;;;;;20.28;51.97;95663.00;10441782;28;2001;-67
2023/07/22 00:56:56;;;;;;;;;;;;;;;20.37;51.96;95657.94;10441314;28;2062;-68
2023/07/22 01:01:56;;;;;;;;;;;;;;;20.35;51.88;95652.19;10454762;28;1995;-67
2023/07/22 01:06:58;;;;;;;;;;;;;;;20.32;52.03;95647.44;10450956;28;1943;-68
2023/07/22 01:11:59;;;;;;;;;;;;;;;20.44;51.53;95634.75;10472641;28;2302;-67
2023/07/22 01:17:00;;;;;;;;;;;;;;;20.51;51.44;95642.31;10443016;28;1985;-67
2023/07/22 01:22:01;;;;;;;;;;;;;;;20.50;51.08;95628.38;10447859;28;1885;-67
2023/07/22 01:27:03;;;;;;;;;;;;;;;20.55;51.04;95646.75;10439579;28;1956;-68
2023/07/22 01:32:03;;;;;;;;;;;;;;;20.54;50.96;95644.41;10445552;28;2094;-67
2023/07/22 01:37:04;;;;;;;;;;;;;;;20.40;51.37;95644.25;10451553;28;1963;-67
2023/07/22 01:42:04;;;;;;;;;;;;;;;20.33;51.46;95643.75;10441621;28;4545;-67
2023/07/22 01:47:05;;;;;;;;;;;;;;;20.30;51.54;95643.53;10452149;28;1919;-67
2023/07/22 01:52:05;;;;;;;;;;;;;;;20.26;51.67;95654.59;10451764;28;2026;-67
2023/07/22 01:57:05;;;;;;;;;;;;;;;20.25;51.96;95657.50;10439032;28;2110;-67
2023/07/22 02:02:06;;;;;;;;;;;;;;;20.32;52.21;95657.22;10449629;28;1960;-68
2023/07/22 02:07:06;;;;;;;;;;;;;;;20.35;52.13;95656.66;10442297;28;1928;-67
2023/07/22 02:12:07;;;;;;;;;;;;;;;20.33;52.48;95656.94;10448897;28;2534;-67
2023/07/22 02:17:09;;;;;;;;;;;;;;;20.31;52.70;95668.78;10445084;28;2294;-67
2023/07/22 02:22:09;;;;;;;;;;;;;;;20.41;52.57;95669.50;10440129;28;1960;-67
2023/07/22 02:27:09;;;;;;;;;;;;;;;20.39;52.90;95668.19;10446911;28;1954;-67
2023/07/22 02:32:10;;;;;;;;;;;;;;;20.42;52.70;95657.13;10441018;28;1958;-67
2023/07/22 02:37:10;;;;;;;;;;;;;;;20.43;52.62;95656.06;10449390;28;1913;-67
2023/07/22 02:42:10;;;;;;;;;;;;;;;20.45;52.88;95662.63;10446218;28;4445;-67
2023/07/22 02:47:10;;;;;;;;;;;;;;;20.35;53.41;95659.28;10447357;28;1947;-66
2023/07/22 02:52:11;;;;;;;;;;;;;;;20.31;53.57;95666.16;10449812;28;1952;-67
2023/07/22 02:57:11;;;;;;;;;;;;;;;20.24;54.02;95671.72;10461346;28;1940;-67
2023/07/22 03:02:14;;;;;;;;;;;;;;;20.20;54.41;95671.47;10480133;28;1986;-68
2023/07/22 03:07:14;;;;;;;;;;;;;;;20.17;54.61;95676.47;10448614;28;2223;-67
2023/07/22 03:12:14;;;;;;;;;;;;;;;20.15;54.84;95674.09;10456532;28;1911;-68
2023/07/22 03:17:16;;;;;;;;;;;;;;;20.25;54.49;95673.31;10455925;28;2022;-68
2023/07/22 03:22:17;;;;;;;;;;;;;;;20.30;54.37;95673.25;10451620;28;2097;-68
2023/07/22 03:27:17;;;;;;;;;;;;;;;20.36;54.28;95666.91;10456955;28;1935;-67
2023/07/22 03:32:17;;;;;;;;;;;;;;;20.41;54.35;95666.88;10446278;28;6580;-67
2023/07/22 03:37:20;;;;;;;;;;;;;;;20.37;54.45;95665.84;10448693;28;5577;-67
2023/07/22 03:42:20;;;;;;;;;;;;;;;20.20;54.95;95668.06;10454365;28;5588;-68
2023/07/22 03:47:20;;;;;;;;;;;;;;;20.08;55.72;95684.16;10453235;28;1935;-67
2023/07/22 03:52:21;;;;;;;;;;;;;;;19.94;56.65;95687.66;10453934;28;1903;-68
2023/07/22 03:57:25;;;;;;;;;;;;;;;19.88;56.74;95683.47;10428170;28;1951;-69
2023/07/22 04:02:25;;;;;;;;;;;;;;;19.82;56.61;95690.59;10444669;28;2186;-68
2023/07/22 04:07:25;;;;;;;;;;;;;;;19.85;56.52;95684.78;10451728;28;5443;-69
2023/07/22 04:12:26;;;;;;;;;;;;;;;19.85;56.72;95691.88;10451958;28;1983;-69
2023/07/22 04:17:26;;;;;;;;;;;;;;;19.74;57.32;95703.53;10449524;28;1971;-69
2023/07/22 04:22:26;;;;;;;;;;;;;;;19.61;57.47;95702.25;10452740;28;1971;-68
2023/07/22 04:27:27;;;;;;;;;;;;;;;19.64;57.47;95706.97;10448141;28;1953;-69
2023/07/22 04:32:27;;;;;;;;;;;;;;;19.55;57.38;95705.97;10450836;28;2400;-69
2023/07/22 04:37:28;;;;;;;;;;;;;;;19.46;57.63;95707.53;10447324;28;1963;-69
2023/07/22 04:42:28;;;;;;;;;;;;;;;19.49;57.28;95697.28;10449175;28;2950;-69
2023/07/22 04:47:28;;;;;;;;;;;;;;;19.63;56.71;95691.47;10446954;28;1994;-69
2023/07/22 04:52:28;;;;;;;;;;;;;;;19.57;56.69;95695.97;10446223;28;2035;-69
2023/07/22 04:57:29;;;;;;;;;;;;;;;19.63;56.17;95696.72;10451457;28;2074;-69
2023/07/22 05:02:33;;;;;;;;;;;;;;;19.61;56.28;95704.09;10444303;28;1905;-69
2023/07/22 05:07:33;;;;;;;;;;;;;;;19.62;56.28;95710.94;10449477;28;1888;-68
2023/07/22 05:12:33;;;;;;;;;;;;;;;19.62;56.18;95708.31;10468764;28;2081;-68
2023/07/22 05:17:33;;;;;;;;;;;;;;;19.59;55.92;95716.72;10442780;28;1967;-68
2023/07/22 05:22:34;;;;;;;;;;;;;;;19.58;55.55;95725.69;10449707;28;2045;-69
2023/07/22 05:27:34;;;;;;;;;;;;;;;19.57;55.45;95719.63;10448237;28;1911;-69
2023/07/22 05:32:35;;;;;;;;;;;;;;;19.60;55.39;95721.69;10444272;28;1912;-68
2023/07/22 05:37:35;;;;;;;;;;;;;;;19.69;55.14;95721.94;10447138;28;2581;-69
2023/07/22 05:42:35;;;;;;;;;;;;;;;19.65;55.11;95705.91;10461502;28;5240;-68
2023/07/22 05:47:35;;;;;;;;;;;;;;;19.65;54.68;95708.56;10477206;28;2054;-68
2023/07/22 05:52:36;;;;;;;;;;;;;;;19.62;54.69;95716.97;10442735;28;2187;-69
2023/07/22 05:57:36;;;;;;;;;;;;;;;19.73;54.23;95712.47;10445797;28;2007;-69
2023/07/22 06:02:37;;;;;;;;;;;;;;;19.73;54.08;95717.72;10448357;28;1963;-68
2023/07/22 06:07:37;;;;;;;;;;;;;;;19.74;53.48;95724.56;10451074;28;2027;-69
2023/07/22 06:12:38;;;;;;;;;;;;;;;19.73;52.94;95726.41;10448256;28;1995;-68
2023/07/22 06:17:38;;;;;;;;;;;;;;;19.64;52.55;95727.22;10440359;28;1963;-69
2023/07/22 06:22:38;;;;;;;;;;;;;;;19.63;52.25;95738.78;10445715;28;1915;-69
2023/07/22 06:27:39;;;;;;;;;;;;;;;19.65;52.11;95742.75;10444657;28;1954;-69
2023/07/22 06:32:39;;;;;;;;;;;;;;;19.67;51.69;95745.88;10448642;28;2534;-69
2023/07/22 06:37:40;;;;;;;;;;;;;;;19.73;52.07;95742.19;10445748;28;1973;-69
2023/07/22 06:42:40;;;;;;;;;;;;;;;19.81;51.71;95753.97;10445838;28;5041;-69
2023/07/22 06:47:40;;;;;;;;;;;;;;;19.78;51.35;95747.44;10444602;28;1972;-69
2023/07/22 06:52:40;;;;;;;;;;;;;;;19.87;51.35;95751.06;10447545;28;2023;-69
2023/07/22 06:57:41;;;;;;;;;;;;;;;19.86;50.66;95752.16;10443405;28;1932;-67
2023/07/22 07:02:41;;;;;;;;;;;;;;;19.84;50.33;95750.84;10457954;28;2018;-70
2023/07/22 07:07:41;;;;;;;;;;;;;;;19.87;50.53;95758.97;10447885;28;2007;-68
2023/07/22 07:12:41;;;;;;;;;;;;;;;19.88;50.46;95755.28;10446545;28;1974;-68
2023/07/22 07:17:42;;;;;;;;;;;;;;;20.11;50.73;95757.28;10446435;28;2048;-68
2023/07/22 07:22:42;;;;;;;;;;;;;;;20.19;50.26;95759.41;10447028;28;2407;-71
2023/07/22 07:27:43;;;;;;;;;;;;;;;20.33;50.39;95759.59;10444443;28;7432;-73
2023/07/22 07:32:43;;;;;;;;;;;;;;;20.43;49.89;95759.53;10441902;28;5443;-67
2023/07/22 07:37:43;;;;;;;;;;;;;;;20.51;49.75;95766.06;10446914;28;5418;-66
2023/07/22 07:42:44;;;;;;;;;;;;;;;20.46;48.62;95774.81;10448455;28;1967;-67
2023/07/22 07:47:44;;;;;;;;;;;;;;;20.55;48.96;95770.53;10448571;28;5439;-71
2023/07/22 07:52:44;;;;;;;;;;;;;;;20.60;48.41;95765.25;10455198;28;1943;-65
2023/07/22 07:57:45;;;;;;;;;;;;;;;20.72;49.08;95768.31;10481323;28;2304;-71
2023/07/22 08:02:45;;;;;;;;;;;;;;;20.77;48.73;95776.16;10444254;28;5527;-68
2023/07/22 08:07:45;;;;;;;;;;;;;;;20.86;48.85;95768.47;10450391;28;1967;-67
2023/07/22 08:12:46;;;;;;;;;;;;;;;20.96;48.73;95774.47;10444911;28;2369;-67
2023/07/22 08:17:46;;;;;;;;;;;;;;;21.03;48.60;95769.72;10455372;28;1965;-68
2023/07/22 08:22:46;;;;;;;;;;;;;;;20.97;47.92;95776.06;10447156;28;1946;-68
2023/07/22 08:27:47;;;;;;;;;;;;;;;21.05;48.16;95772.06;10448787;28;1962;-72
2023/07/22 08:32:47;;;;;;;;;;;;;;;21.16;48.23;95778.03;10450185;28;1915;-68
2023/07/22 08:37:48;;;;;;;;;;;;;;;21.24;48.66;95778.22;10446640;28;6455;-71
2023/07/22 08:42:48;;;;;;;;;;;;;;;21.32;48.64;95772.38;10448666;28;2046;-72
2023/07/22 08:47:48;;;;;;;;;;;;;;;21.37;48.95;95763.63;10477874;28;1998;-75
2023/07/22 08:52:49;;;;;;;;;;;;;;;21.43;49.05;95768.56;10474850;28;1899;-76
2023/07/22 08:57:49;;;;;;;;;;;;;;;21.49;48.97;95766.66;10444538;28;1977;-76
2023/07/22 09:02:49;;;;;;;;;;;;;;;21.54;49.42;95766.59;10448762;28;2030;-75
2023/07/22 09:07:50;;;;;;;;;;;;;;;21.59;49.30;95756.81;10471055;28;2067;-77
2023/07/22 09:12:51;;;;;;;;;;;;;;;21.65;49.26;95765.44;10447230;28;1966;-75
2023/07/22 09:17:51;;;;;;;;;;;;;;;21.67;49.28;95763.31;10450445;28;1975;-74
2023/07/22 09:22:51;;;;;;;;;;;;;;;21.72;49.92;95761.41;10445805;28;2059;-70
2023/07/22 09:27:52;;;;;;;;;;;;;;;21.76;49.69;95746.59;10455446;28;2137;-73
2023/07/22 09:32:53;;;;;;;;;;;;;;;21.81;49.47;95748.38;10446562;28;2222;-73
2023/07/22 09:37:54;;;;;;;;;;;;;;;21.83;49.64;95752.34;10451344;28;4882;-74
2023/07/22 09:42:55;;;;;;;;;;;;;;;21.87;49.60;95747.28;10449147;28;1959;-73
2023/07/22 09:47:55;;;;;;;;;;;;;;;21.90;49.62;95740.66;10440988;28;1948;-74
2023/07/22 09:52:59;;;;;;;;;;;;;;;21.93;49.58;95740.13;10455471;28;1916;-73
2023/07/22 09:58:00;;;;;;;;;;;;;;;21.95;49.55;95738.75;10472850;28;2008;-73
2023/07/22 10:03:01;;;;;;;;;;;;;;;21.97;49.63;95736.63;10443615;28;1889;-72
2023/07/22 10:08:02;;;;;;;;;;;;;;;22.00;49.45;95730.00;10443866;28;1985;-73
2023/07/22 10:13:02;;;;;;;;;;;;;;;22.01;49.22;95732.34;10457575;28;2274;-73
2023/07/22 10:18:02;;;;;;;;;;;;;;;22.04;48.98;95726.50;10456344;28;1967;-74
2023/07/22 10:23:03;;;;;;;;;;;;;;;22.06;48.72;95727.00;10453584;28;2342;-74
2023/07/22 10:28:04;;;;;;;;;;;;;;;22.08;49.02;95722.22;10488463;28;1919;-72
2023/07/22 10:33:04;;;;;;;;;;;;;;;22.10;48.97;95720.09;10464041;28;2284;-74
2023/07/22 10:38:08;;;;;;;;;;;;;;;22.13;48.67;95719.53;10437367;28;4812;-69
2023/07/22 10:43:09;;;;;;;;;;;;;;;22.15;48.51;95727.97;10445726;28;2011;-68
2023/07/22 10:48:10;;;;;;;;;;;;;;;22.18;48.83;95716.81;10440887;28;2119;-68
2023/07/22 10:53:11;;;;;;;;;;;;;;;22.19;48.61;95707.84;10441622;28;2050;-70
2023/07/22 10:58:11;;;;;;;;;;;;;;;22.21;48.82;95710.19;10447071;28;1983;-67
2023/07/22 11:03:12;;;;;;;;;;;;;;;22.24;48.56;95705.13;10446942;28;1895;-69
2023/07/22 11:08:12;;;;;;;;;;;;;;;22.25;48.63;95690.84;10443391;28;2165;-68
2023/07/22 11:13:13;;;;;;;;;;;;;;;22.28;48.82;95690.28;10443864;28;1908;-68
2023/07/22 11:18:13;;;;;;;;;;;;;;;22.30;48.83;95677.56;10463497;28;2048;-69
2023/07/22 11:23:14;;;;;;;;;;;;;;;22.33;48.75;95681.50;10450365;28;1967;-69
2023/07/22 11:28:14;;;;;;;;;;;;;;;22.35;48.91;95677.50;10445171;28;1967;-70
2023/07/22 11:33:14;;;;;;;;;;;;;;;22.39;48.90;95667.94;10440960;28;2018;-71
2023/07/22 11:38:14;;;;;;;;;;;;;;;22.41;48.63;95655.22;10445506;28;1907;-69
2023/07/22 11:43:15;;;;;;;;;;;;;;;22.43;49.01;95653.09;10444681;28;2254;-68
2023/07/22 11:48:15;;;;;;;;;;;;;;;22.47;49.20;95653.28;10448552;28;2295;-69
2023/07/22 11:53:15;;;;;;;;;;;;;;;22.50;49.04;95647.44;10453495;28;1971;-67
2023/07/22 11:58:23;;;;;;;;;;;;;;;22.51;48.63;95641.06;10447458;28;1936;-68
2023/07/22 12:03:23;;;;;;;;;;;;;;;22.52;48.73;95634.72;10450416;28;2046;-71
2023/07/22 12:08:24;;;;;;;;;;;;;;;22.54;48.88;95629.94;10451088;28;1967;-70
2023/07/22 12:13:24;;;;;;;;;;;;;;;22.57;48.84;95619.59;10478960;28;2121;-72
2023/07/22 12:18:24;;;;;;;;;;;;;;;22.58;48.50;95623.84;10451897;28;1994;-73
2023/07/22 12:23:25;;;;;;;;;;;;;;;22.63;49.13;95617.66;10446344;28;2329;-75
2023/07/22 12:28:25;;;;;;;;;;;;;;;22.65;48.95;95610.22;10451555;28;2012;-74
2023/07/22 12:33:25;;;;;;;;;;;;;;;22.66;48.65;95617.09;10438286;28;1991;-75
2023/07/22 12:38:26;;;;;;;;;;;;;;;22.68;48.77;95617.59;10441827;28;4527;-74
2023/07/22 12:43:26;;;;;;;;;;;;;;;22.69;48.91;95610.47;10452079;28;1961;-74
2023/07/22 12:48:27;;;;;;;;;;;;;;;22.72;48.61;95609.84;10450152;28;1886;-74
2023/07/22 12:53:27;;;;;;;;;;;;;;;22.72;48.78;95607.22;10446146;28;1915;-74
2023/07/22 12:58:28;;;;;;;;;;;;;;;22.72;48.57;95604.56;10445890;28;2179;-73
2023/07/22 13:03:28;;;;;;;;;;;;;;;22.73;48.59;95600.88;10443453;28;1736;-74
2023/07/22 13:08:28;;;;;;;;;;;;;;;22.73;48.34;95600.88;10462289;28;1893;-74
2023/07/22 13:13:28;;;;;;;;;;;;;;;22.74;48.17;95587.38;10445652;28;2050;-72
2023/07/22 13:18:29;;;;;;;;;;;;;;;22.76;48.33;95587.06;10476866;28;3112;-73
2023/07/22 13:23:29;;;;;;;;;;;;;;;22.76;48.44;95582.56;10448693;28;1897;-73
2023/07/22 13:28:30;;;;;;;;;;;;;;;22.77;48.36;95573.59;10441364;28;1902;-73
2023/07/22 13:33:30;;;;;;;;;;;;;;;22.78;48.09;95585.72;10443615;28;2215;-73
2023/07/22 13:38:30;;;;;;;;;;;;;;;22.79;47.62;95586.50;10448033;28;4565;-73
2023/07/22 13:43:31;;;;;;;;;;;;;;;22.79;48.14;95568.00;10446621;28;1886;-73
2023/07/22 13:48:31;;;;;;;;;;;;;;;22.80;47.79;95574.84;10469461;28;1878;-73
2023/07/22 13:53:31;;;;;;;;;;;;;;;22.81;47.92;95585.13;10447866;28;2070;-72
2023/07/22 13:58:31;;;;;;;;;;;;;;;22.83;47.91;95579.56;10446473;28;1735;-73
2023/07/22 14:03:32;;;;;;;;;;;;;;;22.83;47.55;95568.97;10449587;28;1795;-72
2023/07/22 14:08:33;;;;;;;;;;;;;;;22.84;47.75;95578.47;10442046;28;1881;-74
2023/07/22 14:13:33;;;;;;;;;;;;;;;22.85;47.67;95582.69;10443659;28;2270;-73
2023/07/22 14:18:34;;;;;;;;;;;;;;;22.85;47.87;95567.63;10443965;28;2073;-73
2023/07/22 14:23:34;;;;;;;;;;;;;;;22.86;47.93;95563.09;10449591;28;1873;-73
2023/07/22 14:28:34;;;;;;;;;;;;;;;22.87;47.61;95564.69;10444258;28;1862;-73
2023/07/22 14:33:34;;;;;;;;;;;;;;;22.88;47.65;95559.09;10447463;28;1971;-73
2023/07/22 14:38:35;;;;;;;;;;;;;;;22.89;47.86;95567.81;10440629;28;4431;-73
2023/07/22 14:43:35;;;;;;;;;;;;;;;22.90;47.44;95569.38;10446360;28;1928;-73
2023/07/22 14:48:35;;;;;;;;;;;;;;;22.89;47.37;95573.88;10445524;28;1830;-73
2023/07/22 14:53:36;;;;;;;;;;;;;;;22.90;47.60;95556.94;10445233;28;1976;-72
2023/07/22 14:58:36;;;;;;;;;;;;;;;22.92;47.33;95564.56;10449220;28;1928;-73
2023/07/22 15:03:36;;;;;;;;;;;;;;;22.92;47.27;95562.72;10452905;28;1894;-72
2023/07/22 15:08:37;;;;;;;;;;;;;;;22.92;47.37;95551.34;10451252;28;1936;-73
2023/07/22 15:13:37;;;;;;;;;;;;;;;22.93;47.47;95547.66;10451992;28;2336;-73
2023/07/22 15:18:37;;;;;;;;;;;;;;;22.94;47.19;95543.91;10447006;28;1986;-73
2023/07/22 15:23:37;;;;;;;;;;;;;;;22.93;47.32;95543.16;10449625;28;1927;-73
2023/07/22 15:28:39;;;;;;;;;;;;;;;22.95;47.38;95533.06;10447595;28;1953;-73
2023/07/22 15:33:40;;;;;;;;;;;;;;;22.96;47.25;95539.13;10452901;28;1981;-73
2023/07/22 15:38:40;;;;;;;;;;;;;;;22.95;47.24;95542.84;10449391;28;4530;-73
2023/07/22 15:43:41;;;;;;;;;;;;;;;22.95;47.21;95541.00;10449319;28;2065;-73
2023/07/22 15:48:41;;;;;;;;;;;;;;;22.97;47.33;95530.13;10456566;28;1835;-73
2023/07/22 15:53:41;;;;;;;;;;;;;;;22.97;46.98;95535.41;10452752;28;1933;-73
2023/07/22 15:58:42;;;;;;;;;;;;;;;22.97;46.96;95530.13;10450102;28;1886;-73
2023/07/22 16:03:42;;;;;;;;;;;;;;;22.99;46.90;95535.91;10453726;28;1967;-74
2023/07/22 16:08:42;;;;;;;;;;;;;;;22.99;47.11;95535.91;10451122;28;2400;-73
2023/07/22 16:13:42;;;;;;;;;;;;;;;22.99;47.03;95541.97;10451787;28;1902;-73
2023/07/22 16:18:43;;;;;;;;;;;;;;;23.00;47.07;95540.88;10451516;28;1851;-73
2023/07/22 16:23:43;;;;;;;;;;;;;;;23.00;46.73;95540.88;10453366;28;1878;-73
2023/07/22 16:28:44;;;;;;;;;;;;;;;23.02;46.78;95535.31;10444822;28;1974;-75
2023/07/22 16:33:44;;;;;;;;;;;;;;;23.01;46.68;95539.03;10446531;28;2050;-73
2023/07/22 16:38:45;;;;;;;;;;;;;;;23.01;46.64;95539.03;10451427;28;4447;-73
2023/07/22 16:43:45;;;;;;;;;;;;;;;23.02;46.63;95535.31;10447310;28;1910;-73
2023/07/22 16:48:45;;;;;;;;;;;;;;;23.04;46.51;95538.47;10452560;28;1881;-74
2023/07/22 16:53:45;;;;;;;;;;;;;;;23.04;46.92;95533.16;10447628;28;1910;-72
2023/07/22 16:58:46;;;;;;;;;;;;;;;23.04;46.51;95535.81;10449955;28;1893;-73
2023/07/22 17:03:46;;;;;;;;;;;;;;;23.04;46.63;95533.16;10453007;28;2373;-73
2023/07/22 17:08:46;;;;;;;;;;;;;;;23.05;46.80;95535.50;10447501;28;1901;-74
2023/07/22 17:13:47;;;;;;;;;;;;;;;23.05;46.33;95532.09;10449409;28;1906;-73
2023/07/22 17:18:47;;;;;;;;;;;;;;;23.06;46.33;95539.72;10476713;28;1826;-70
2023/07/22 17:23:47;;;;;;;;;;;;;;;23.08;46.52;95534.16;10441684;28;1893;-70
2023/07/22 17:28:47;;;;;;;;;;;;;;;23.08;46.60;95532.25;10445490;28;1842;-71
2023/07/22 17:33:48;;;;;;;;;;;;;;;23.09;46.26;95533.84;10442673;28;1968;-70
2023/07/22 17:38:48;;;;;;;;;;;;;;;23.09;46.67;95536.50;10445584;28;4473;-72
2023/07/22 17:43:49;;;;;;;;;;;;;;;23.10;46.09;95535.41;10438941;28;1918;-71
2023/07/22 17:48:49;;;;;;;;;;;;;;;23.12;46.33;95532.47;10443380;28;1943;-70
2023/07/22 17:53:50;;;;;;;;;;;;;;;23.11;46.38;95529.06;10436189;28;2105;-70
2023/07/22 17:58:50;;;;;;;;;;;;;;;23.13;46.45;95534.03;10445162;28;2170;-71
2023/07/22 18:03:50;;;;;;;;;;;;;;;23.09;46.12;95531.22;10444267;28;1866;-67
2023/07/22 18:08:51;;;;;;;;;;;;;;;23.14;46.63;95531.09;10441580;28;1893;-68
2023/07/22 18:13:54;;;;;;;;;;;;;;;23.15;46.45;95534.53;10443806;28;1975;-68
2023/07/22 18:18:54;;;;;;;;;;;;;;;23.16;46.46;95536.88;10444380;28;2052;-68
2023/07/22 18:23:55;;;;;;;;;;;;;;;23.18;46.56;95544.53;10444760;28;1819;-69
2023/07/22 18:28:57;;;;;;;;;;;;;;;23.18;46.33;95542.66;10439009;28;1984;-67
2023/07/22 18:33:57;;;;;;;;;;;;;;;23.20;46.62;95537.09;10450501;28;1942;-66
2023/07/22 18:38:57;;;;;;;;;;;;;;;23.22;46.92;95548.94;10450168;28;4532;-69
2023/07/22 18:43:58;;;;;;;;;;;;;;;23.23;46.71;95549.69;10451202;28;1826;-68
2023/07/22 18:48:58;;;;;;;;;;;;;;;23.24;46.66;95553.91;10448220;28;1834;-68
2023/07/22 18:53:58;;;;;;;;;;;;;;;23.24;46.73;95557.34;10448913;28;1914;-70
2023/07/22 18:58:59;;;;;;;;;;;;;;;23.26;46.58;95554.41;10456085;28;2264;-70
2023/07/22 19:03:59;;;;;;;;;;;;;;;23.28;46.74;95568.13;10463253;28;1878;-72
2023/07/22 19:09:00;;;;;;;;;;;;;;;23.28;46.65;95558.34;10436776;28;1877;-69
2023/07/22 19:14:00;;;;;;;;;;;;;;;23.29;46.75;95567.81;10453814;28;1985;-70
2023/07/22 19:19:00;;;;;;;;;;;;;;;23.31;46.96;95564.88;10447403;28;1910;-70
2023/07/22 19:24:00;;;;;;;;;;;;;;;23.33;46.53;95573.31;10453814;28;1889;-69
2023/07/22 19:29:01;;;;;;;;;;;;;;;23.36;46.79;95575.41;10454574;28;1947;-69
2023/07/22 19:34:01;;;;;;;;;;;;;;;23.37;46.76;95579.59;10449654;28;1906;-65
2023/07/22 19:39:28;;;;;;;;;;;;;;;23.37;46.63;95579.59;10437955;28;4477;-69
2023/07/22 19:44:28;;;;;;;;;;;;;;;23.40;46.63;95584.31;10440762;28;2032;-70
2023/07/22 19:49:28;;;;;;;;;;;;;;;23.40;46.16;95589.59;10474819;28;1885;-68
2023/07/22 19:54:29;;;;;;;;;;;;;;;23.41;46.19;95597.22;10444642;28;1994;-69
2023/07/22 19:59:29;;;;;;;;;;;;;;;23.43;46.41;95599.59;10437450;28;2000;-70
2023/07/22 20:04:29;;;;;;;;;;;;;;;23.42;46.12;95606.75;10443475;28;1904;-69
2023/07/22 20:09:30;;;;;;;;;;;;;;;23.43;45.97;95602.25;10445628;28;1861;-69
2023/07/22 20:14:30;;;;;;;;;;;;;;;23.42;45.92;95611.25;10439546;28;1909;-69
2023/07/22 20:19:32;;;;;;;;;;;;;;;23.42;46.06;95611.25;10470552;28;1998;-69
2023/07/22 20:24:34;;;;;;;;;;;;;;;23.43;45.82;95610.19;10441724;28;1999;-69
2023/07/22 20:29:35;;;;;;;;;;;;;;;23.33;43.69;95608.50;10446747;28;1866;-69
2023/07/22 20:34:36;;;;;;;;;;;;;;;23.14;42.22;95618.34;10443577;28;1963;-69
2023/07/22 20:39:36;;;;;;;;;;;;;;;23.05;41.17;95608.75;10443362;28;4434;-67
2023/07/22 20:44:36;;;;;;;;;;;;;;;22.95;40.85;95617.66;10451408;28;1884;-68
2023/07/22 20:49:36;;;;;;;;;;;;;;;22.87;40.64;95620.97;10444660;28;2364;-67
2023/07/22 20:54:37;;;;;;;;;;;;;;;22.81;40.85;95618.69;10444483;28;1968;-66
2023/07/22 20:59:37;;;;;;;;;;;;;;;22.75;40.79;95625.16;10469197;28;1866;-67
2023/07/22 21:04:37;;;;;;;;;;;;;;;22.64;39.86;95617.41;10445610;28;1924;-68
2023/07/22 21:09:39;;;;;;;;;;;;;;;22.71;40.60;95616.22;10447467;28;1834;-65
2023/07/22 21:14:39;;;;;;;;;;;;;;;22.69;40.51;95618.38;10446653;28;1966;-65
2023/07/22 21:19:40;;;;;;;;;;;;;;;22.69;40.08;95615.75;10449474;28;2169;-64
2023/07/22 21:24:40;;;;;;;;;;;;;;;22.68;40.30;95614.94;10446366;28;1947;-65
2023/07/22 21:29:40;;;;;;;;;;;;;;;22.67;40.19;95618.66;10437858;28;1890;-64
2023/07/22 21:34:40;;;;;;;;;;;;;;;22.65;40.30;95621.59;10439279;28;1930;-68
2023/07/22 21:39:41;;;;;;;;;;;;;;;22.65;40.17;95616.31;10436384;28;4507;-67
2023/07/22 21:44:41;;;;;;;;;;;;;;;22.64;40.34;95624.53;10440094;28;2230;-69
2023/07/22 21:49:41;;;;;;;;;;;;;;;22.65;40.50;95621.59;10432541;28;1980;-69
2023/07/22 21:54:41;;;;;;;;;;;;;;;22.64;40.45;95625.31;10439441;28;1972;-67
2023/07/22 21:59:42;;;;;;;;;;;;;;;22.67;40.66;95623.16;10438812;28;1897;-67
2023/07/22 22:04:42;;;;;;;;;;;;;;;22.67;40.49;95630.00;10453974;28;1926;-68
2023/07/22 22:09:43;;;;;;;;;;;;;;;22.64;40.42;95633.25;10456822;28;1877;-68
2023/07/22 22:14:43;;;;;;;;;;;;;;;22.64;40.55;95627.97;10492542;28;1906;-67
2023/07/22 22:19:44;;;;;;;;;;;;;;;22.64;40.51;95630.59;10455549;28;1840;-67
2023/07/22 22:24:44;;;;;;;;;;;;;;;22.64;40.74;95635.09;10457402;28;1898;-67
2023/07/22 22:29:44;;;;;;;;;;;;;;;22.63;40.79;95634.31;10454402;28;1846;-69
2023/07/22 22:34:45;;;;;;;;;;;;;;;22.63;40.75;95639.59;10478904;28;1964;-67
2023/07/22 22:39:45;;;;;;;;;;;;;;;22.62;40.98;95638.03;10452087;28;4465;-68
2023/07/22 22:44:45;;;;;;;;;;;;;;;22.61;41.02;95633.03;10452327;28;1889;-67
2023/07/22 22:49:48;;;;;;;;;;;;;;;22.61;41.00;95636.44;10449704;28;1975;-67
2023/07/22 22:54:48;;;;;;;;;;;;;;;22.59;41.27;95628.03;10455031;28;1954;-67
2023/07/22 22:59:49;;;;;;;;;;;;;;;22.58;41.48;95629.13;10464025;28;1902;-67
2023/07/22 23:04:49;;;;;;;;;;;;;;;22.57;41.70;95634.63;10454618;28;1827;-65
2023/07/22 23:09:49;;;;;;;;;;;;;;;22.57;41.51;95639.94;10446626;28;1889;-67
2023/07/22 23:14:50;;;;;;;;;;;;;;;22.58;41.97;95644.19;10481830;28;1973;-68
2023/07/22 23:19:50;;;;;;;;;;;;;;;22.55;41.80;95634.94;10450274;28;1991;-67
2023/07/22 23:24:50;;;;;;;;;;;;;;;22.54;42.13;95630.75;10449062;28;1870;-67
2023/07/22 23:29:51;;;;;;;;;;;;;;;22.54;42.28;95624.66;10452483;28;1877;-67
2023/07/22 23:34:53;;;;;;;;;;;;;;;22.53;42.28;95625.72;10454467;28;1909;-67
2023/07/22 23:39:53;;;;;;;;;;;;;;;22.50;42.42;95624.44;10447488;28;4502;-68
2023/07/22 23:44:53;;;;;;;;;;;;;;;22.50;42.59;95632.34;10444242;28;1889;-67
2023/07/22 23:49:53;;;;;;;;;;;;;;;22.52;42.63;95626.81;10452130;28;1878;-68
2023/07/22 23:54:54;;;;;;;;;;;;;;;22.53;42.87;95626.50;10458315;28;2004;-68
2023/07/22 23:59:54;;;;;;;;;;;;;;;22.52;42.93;95621.53;10451667;28;1834;-67
